Terminal Aerodrome Forecast
Issued by NWS

Home | Current Version | Previous Version | Text Only | Print | Product List | Glossary On
Versions: 1 2 3 4 5 6 7 8 9 10 11 12 13 14 15 16 17 18 19 20 21 22 23 24 25 26 27 28 29 30 31 32 33
000
FTAK31 PAFA 290330 AAA
TAFAUN
TAF AMD
PAUN 290330Z 2904/2924 08026G32KT P6SM OVC060
     FM290500 09027G33KT 1 1/2SM -SN BLSN OVC015
     FM291800 09030G36KT 5SM -SHSN BLSN BKN025 BKN050=

USA.gov is the U.S. government's official web portal to all federal, state and local government web resources and services.